sensor_id;sensor_type;location;lat;lon;timestamp;P1;durP1;ratioP1;P2;durP2;ratioP2
37107;SDS011;23019;49.300;6.846;2022-10-13T00:00:17;4.32;;;3.92;;
37107;SDS011;23019;49.300;6.846;2022-10-13T00:02:19;3.78;;;3.47;;
37107;SDS011;23019;49.300;6.846;2022-10-13T00:04:19;6.68;;;3.17;;
37107;SDS011;23019;49.300;6.846;2022-10-13T00:06:22;5.20;;;3.47;;
37107;SDS011;23019;49.300;6.846;2022-10-13T00:08:24;4.38;;;3.78;;
37107;SDS011;23019;49.300;6.846;2022-10-13T00:10:25;4.53;;;4.13;;
37107;SDS011;23019;49.300;6.846;2022-10-13T00:12:26;4.55;;;3.83;;
37107;SDS011;23019;49.300;6.846;2022-10-13T00:14:27;5.40;;;3.92;;
37107;SDS011;23019;49.300;6.846;2022-10-13T00:16:28;3.92;;;3.63;;
37107;SDS011;23019;49.300;6.846;2022-10-13T00:18:30;5.72;;;3.13;;
37107;SDS011;23019;49.300;6.846;2022-10-13T00:20:30;3.45;;;3.15;;
37107;SDS011;23019;49.300;6.846;2022-10-13T00:22:31;4.00;;;3.55;;
37107;SDS011;23019;49.300;6.846;2022-10-13T00:24:32;4.22;;;3.60;;
37107;SDS011;23019;49.300;6.846;2022-10-13T00:26:32;4.18;;;3.78;;
37107;SDS011;23019;49.300;6.846;2022-10-13T00:28:34;3.33;;;3.00;;
37107;SDS011;23019;49.300;6.846;2022-10-13T00:30:36;3.50;;;3.20;;
37107;SDS011;23019;49.300;6.846;2022-10-13T00:32:37;3.60;;;3.30;;
37107;SDS011;23019;49.300;6.846;2022-10-13T00:34:39;3.85;;;3.55;;
37107;SDS011;23019;49.300;6.846;2022-10-13T00:36:39;3.85;;;3.55;;
37107;SDS011;23019;49.300;6.846;2022-10-13T00:38:40;6.90;;;4.70;;
37107;SDS011;23019;49.300;6.846;2022-10-13T00:40:46;4.13;;;3.72;;
37107;SDS011;23019;49.300;6.846;2022-10-13T00:42:52;3.22;;;2.92;;
37107;SDS011;23019;49.300;6.846;2022-10-13T00:45:00;3.50;;;3.22;;
37107;SDS011;23019;49.300;6.846;2022-10-13T00:47:08;3.65;;;3.35;;
37107;SDS011;23019;49.300;6.846;2022-10-13T00:49:11;3.80;;;3.30;;
37107;SDS011;23019;49.300;6.846;2022-10-13T00:51:19;4.68;;;3.90;;
37107;SDS011;23019;49.300;6.846;2022-10-13T00:53:24;3.92;;;3.58;;
37107;SDS011;23019;49.300;6.846;2022-10-13T00:55:31;4.03;;;3.63;;
37107;SDS011;23019;49.300;6.846;2022-10-13T00:57:34;3.33;;;3.03;;
37107;SDS011;23019;49.300;6.846;2022-10-13T00:59:37;4.20;;;3.67;;
37107;SDS011;23019;49.300;6.846;2022-10-13T01:01:39;3.50;;;2.97;;
37107;SDS011;23019;49.300;6.846;2022-10-13T01:03:40;4.05;;;3.70;;
37107;SDS011;23019;49.300;6.846;2022-10-13T01:05:41;3.90;;;3.50;;
37107;SDS011;23019;49.300;6.846;2022-10-13T01:07:42;4.15;;;3.72;;
37107;SDS011;23019;49.300;6.846;2022-10-13T01:09:47;4.68;;;3.60;;
37107;SDS011;23019;49.300;6.846;2022-10-13T01:11:52;3.83;;;3.40;;
37107;SDS011;23019;49.300;6.846;2022-10-13T01:14:23;3.70;;;3.40;;
37107;SDS011;23019;49.300;6.846;2022-10-13T01:16:43;3.03;;;2.75;;
37107;SDS011;23019;49.300;6.846;2022-10-13T01:26:38;3.47;;;3.20;;
37107;SDS011;23019;49.300;6.846;2022-10-13T01:31:17;3.92;;;3.53;;
37107;SDS011;23019;49.300;6.846;2022-10-13T01:33:36;3.72;;;3.25;;
37107;SDS011;23019;49.300;6.846;2022-10-13T01:35:51;3.50;;;3.20;;
37107;SDS011;23019;49.300;6.846;2022-10-13T01:40:38;4.13;;;3.72;;
37107;SDS011;23019;49.300;6.846;2022-10-13T01:45:06;3.50;;;3.20;;
37107;SDS011;23019;49.300;6.846;2022-10-13T01:47:09;3.70;;;3.03;;
37107;SDS011;23019;49.300;6.846;2022-10-13T01:49:15;4.63;;;4.18;;
37107;SDS011;23019;49.300;6.846;2022-10-13T01:51:18;4.28;;;3.80;;
37107;SDS011;23019;49.300;6.846;2022-10-13T01:53:24;3.80;;;3.50;;
37107;SDS011;23019;49.300;6.846;2022-10-13T01:55:26;4.30;;;4.00;;
37107;SDS011;23019;49.300;6.846;2022-10-13T01:57:32;3.60;;;3.30;;
37107;SDS011;23019;49.300;6.846;2022-10-13T01:59:33;7.50;;;3.45;;
37107;SDS011;23019;49.300;6.846;2022-10-13T02:02:20;5.40;;;4.15;;
37107;SDS011;23019;49.300;6.846;2022-10-13T02:04:31;3.60;;;3.30;;
37107;SDS011;23019;49.300;6.846;2022-10-13T02:09:25;4.20;;;3.63;;
37107;SDS011;23019;49.300;6.846;2022-10-13T02:11:44;4.22;;;3.75;;
37107;SDS011;23019;49.300;6.846;2022-10-13T02:16:06;3.70;;;3.40;;
37107;SDS011;23019;49.300;6.846;2022-10-13T02:18:08;4.75;;;4.35;;
37107;SDS011;23019;49.300;6.846;2022-10-13T02:20:10;4.15;;;3.75;;
37107;SDS011;23019;49.300;6.846;2022-10-13T02:22:12;3.53;;;3.22;;
37107;SDS011;23019;49.300;6.846;2022-10-13T02:24:15;3.88;;;3.55;;
37107;SDS011;23019;49.300;6.846;2022-10-13T02:26:16;6.93;;;4.32;;
37107;SDS011;23019;49.300;6.846;2022-10-13T02:28:17;5.45;;;3.85;;
37107;SDS011;23019;49.300;6.846;2022-10-13T02:30:19;4.30;;;3.80;;
37107;SDS011;23019;49.300;6.846;2022-10-13T02:32:22;4.50;;;4.07;;
37107;SDS011;23019;49.300;6.846;2022-10-13T02:34:24;4.22;;;3.80;;
37107;SDS011;23019;49.300;6.846;2022-10-13T02:36:25;4.63;;;4.22;;
37107;SDS011;23019;49.300;6.846;2022-10-13T02:38:27;4.72;;;4.38;;
37107;SDS011;23019;49.300;6.846;2022-10-13T02:40:28;4.72;;;4.20;;
37107;SDS011;23019;49.300;6.846;2022-10-13T02:42:28;4.53;;;4.13;;
37107;SDS011;23019;49.300;6.846;2022-10-13T02:44:34;8.60;;;3.95;;
37107;SDS011;23019;49.300;6.846;2022-10-13T02:46:35;4.95;;;4.45;;
37107;SDS011;23019;49.300;6.846;2022-10-13T02:48:35;4.78;;;4.38;;
37107;SDS011;23019;49.300;6.846;2022-10-13T02:50:36;4.32;;;3.92;;
37107;SDS011;23019;49.300;6.846;2022-10-13T02:52:37;5.70;;;4.35;;
37107;SDS011;23019;49.300;6.846;2022-10-13T02:54:37;4.35;;;4.05;;
37107;SDS011;23019;49.300;6.846;2022-10-13T02:56:38;4.30;;;3.90;;
37107;SDS011;23019;49.300;6.846;2022-10-13T02:58:39;4.53;;;3.95;;
37107;SDS011;23019;49.300;6.846;2022-10-13T03:00:39;4.28;;;3.75;;
37107;SDS011;23019;49.300;6.846;2022-10-13T03:02:40;4.03;;;3.72;;
37107;SDS011;23019;49.300;6.846;2022-10-13T03:04:41;7.53;;;4.78;;
37107;SDS011;23019;49.300;6.846;2022-10-13T03:06:42;6.45;;;3.75;;
37107;SDS011;23019;49.300;6.846;2022-10-13T03:08:42;4.00;;;3.70;;
37107;SDS011;23019;49.300;6.846;2022-10-13T03:10:43;4.38;;;4.00;;
37107;SDS011;23019;49.300;6.846;2022-10-13T03:12:44;4.93;;;4.10;;
37107;SDS011;23019;49.300;6.846;2022-10-13T03:14:45;3.65;;;3.35;;
37107;SDS011;23019;49.300;6.846;2022-10-13T03:16:45;5.57;;;4.45;;
37107;SDS011;23019;49.300;6.846;2022-10-13T03:18:47;5.40;;;4.90;;
37107;SDS011;23019;49.300;6.846;2022-10-13T03:20:54;4.30;;;3.97;;
37107;SDS011;23019;49.300;6.846;2022-10-13T03:22:56;4.88;;;4.47;;
37107;SDS011;23019;49.300;6.846;2022-10-13T03:24:57;3.97;;;3.67;;
37107;SDS011;23019;49.300;6.846;2022-10-13T03:26:58;4.18;;;3.88;;
37107;SDS011;23019;49.300;6.846;2022-10-13T03:28:58;4.88;;;4.55;;
37107;SDS011;23019;49.300;6.846;2022-10-13T03:31:02;5.15;;;4.00;;
37107;SDS011;23019;49.300;6.846;2022-10-13T03:33:05;4.38;;;3.97;;
37107;SDS011;23019;49.300;6.846;2022-10-13T03:35:06;7.07;;;4.13;;
37107;SDS011;23019;49.300;6.846;2022-10-13T03:37:07;4.68;;;4.28;;
37107;SDS011;23019;49.300;6.846;2022-10-13T03:39:14;3.67;;;3.38;;
37107;SDS011;23019;49.300;6.846;2022-10-13T03:41:16;5.20;;;4.70;;
37107;SDS011;23019;49.300;6.846;2022-10-13T03:43:23;4.65;;;3.85;;
37107;SDS011;23019;49.300;6.846;2022-10-13T03:45:23;6.85;;;3.92;;
37107;SDS011;23019;49.300;6.846;2022-10-13T03:47:24;5.32;;;4.70;;
37107;SDS011;23019;49.300;6.846;2022-10-13T03:49:25;4.88;;;4.47;;
37107;SDS011;23019;49.300;6.846;2022-10-13T03:51:25;6.53;;;4.00;;
37107;SDS011;23019;49.300;6.846;2022-10-13T03:53:26;4.55;;;4.22;;
37107;SDS011;23019;49.300;6.846;2022-10-13T03:55:27;4.32;;;4.03;;
37107;SDS011;23019;49.300;6.846;2022-10-13T03:57:27;4.05;;;3.67;;
37107;SDS011;23019;49.300;6.846;2022-10-13T03:59:28;4.25;;;3.95;;
37107;SDS011;23019;49.300;6.846;2022-10-13T04:01:29;3.72;;;3.42;;
37107;SDS011;23019;49.300;6.846;2022-10-13T04:03:31;5.18;;;4.25;;
37107;SDS011;23019;49.300;6.846;2022-10-13T04:05:33;3.50;;;3.25;;
37107;SDS011;23019;49.300;6.846;2022-10-13T04:07:34;4.55;;;4.15;;
37107;SDS011;23019;49.300;6.846;2022-10-13T04:09:40;4.43;;;3.63;;
37107;SDS011;23019;49.300;6.846;2022-10-13T04:11:41;5.13;;;3.65;;
37107;SDS011;23019;49.300;6.846;2022-10-13T04:13:41;4.80;;;4.28;;
37107;SDS011;23019;49.300;6.846;2022-10-13T04:15:45;4.03;;;3.72;;
37107;SDS011;23019;49.300;6.846;2022-10-13T04:17:45;4.63;;;3.55;;
37107;SDS011;23019;49.300;6.846;2022-10-13T04:19:46;5.47;;;4.07;;
37107;SDS011;23019;49.300;6.846;2022-10-13T04:21:46;4.50;;;4.13;;
37107;SDS011;23019;49.300;6.846;2022-10-13T04:23:50;3.70;;;3.45;;
37107;SDS011;23019;49.300;6.846;2022-10-13T04:25:53;6.50;;;4.68;;
37107;SDS011;23019;49.300;6.846;2022-10-13T04:27:55;3.80;;;3.45;;
37107;SDS011;23019;49.300;6.846;2022-10-13T04:29:56;4.65;;;4.20;;
37107;SDS011;23019;49.300;6.846;2022-10-13T04:31:58;4.47;;;4.07;;
37107;SDS011;23019;49.300;6.846;2022-10-13T04:33:59;4.60;;;4.20;;
37107;SDS011;23019;49.300;6.846;2022-10-13T04:36:02;4.32;;;3.92;;
37107;SDS011;23019;49.300;6.846;2022-10-13T04:38:07;5.03;;;3.75;;
37107;SDS011;23019;49.300;6.846;2022-10-13T04:40:08;4.40;;;3.97;;
37107;SDS011;23019;49.300;6.846;2022-10-13T04:42:08;4.45;;;4.15;;
37107;SDS011;23019;49.300;6.846;2022-10-13T04:44:11;3.63;;;3.35;;
37107;SDS011;23019;49.300;6.846;2022-10-13T04:46:12;6.60;;;3.95;;
37107;SDS011;23019;49.300;6.846;2022-10-13T04:48:14;4.00;;;3.70;;
37107;SDS011;23019;49.300;6.846;2022-10-13T04:50:15;4.55;;;4.03;;
37107;SDS011;23019;49.300;6.846;2022-10-13T04:52:16;3.95;;;3.65;;
37107;SDS011;23019;49.300;6.846;2022-10-13T04:54:17;3.28;;;3.08;;
37107;SDS011;23019;49.300;6.846;2022-10-13T04:56:18;5.68;;;3.85;;
37107;SDS011;23019;49.300;6.846;2022-10-13T04:58:19;4.30;;;3.70;;
37107;SDS011;23019;49.300;6.846;2022-10-13T05:00:20;6.15;;;4.20;;
37107;SDS011;23019;49.300;6.846;2022-10-13T05:02:20;5.53;;;3.58;;
37107;SDS011;23019;49.300;6.846;2022-10-13T05:04:24;5.22;;;3.63;;
37107;SDS011;23019;49.300;6.846;2022-10-13T05:06:25;4.28;;;3.88;;
37107;SDS011;23019;49.300;6.846;2022-10-13T05:08:31;4.78;;;4.10;;
37107;SDS011;23019;49.300;6.846;2022-10-13T05:10:33;5.13;;;4.63;;
37107;SDS011;23019;49.300;6.846;2022-10-13T05:12:34;6.78;;;3.92;;
37107;SDS011;23019;49.300;6.846;2022-10-13T05:14:35;3.83;;;3.53;;
37107;SDS011;23019;49.300;6.846;2022-10-13T05:16:40;3.83;;;3.45;;
37107;SDS011;23019;49.300;6.846;2022-10-13T05:18:41;4.45;;;4.05;;
37107;SDS011;23019;49.300;6.846;2022-10-13T05:20:45;4.10;;;3.72;;
37107;SDS011;23019;49.300;6.846;2022-10-13T05:23:01;4.53;;;4.13;;
37107;SDS011;23019;49.300;6.846;2022-10-13T05:25:02;4.15;;;3.85;;
37107;SDS011;23019;49.300;6.846;2022-10-13T05:27:12;6.28;;;4.40;;
37107;SDS011;23019;49.300;6.846;2022-10-13T05:29:13;3.90;;;3.60;;
37107;SDS011;23019;49.300;6.846;2022-10-13T05:31:21;5.18;;;4.50;;
37107;SDS011;23019;49.300;6.846;2022-10-13T05:33:39;4.03;;;3.72;;
37107;SDS011;23019;49.300;6.846;2022-10-13T05:38:49;3.70;;;3.40;;
37107;SDS011;23019;49.300;6.846;2022-10-13T05:40:51;3.30;;;3.00;;
37107;SDS011;23019;49.300;6.846;2022-10-13T05:42:51;3.58;;;3.28;;
37107;SDS011;23019;49.300;6.846;2022-10-13T05:44:53;4.13;;;3.58;;
37107;SDS011;23019;49.300;6.846;2022-10-13T05:46:54;3.40;;;3.20;;
37107;SDS011;23019;49.300;6.846;2022-10-13T05:48:55;3.15;;;2.75;;
37107;SDS011;23019;49.300;6.846;2022-10-13T05:51:00;3.28;;;3.08;;
37107;SDS011;23019;49.300;6.846;2022-10-13T05:53:23;3.90;;;3.08;;
37107;SDS011;23019;49.300;6.846;2022-10-13T05:55:27;3.13;;;2.92;;
37107;SDS011;23019;49.300;6.846;2022-10-13T05:57:32;3.10;;;2.80;;
37107;SDS011;23019;49.300;6.846;2022-10-13T05:59:37;2.72;;;2.50;;
37107;SDS011;23019;49.300;6.846;2022-10-13T06:01:40;4.93;;;3.22;;
37107;SDS011;23019;49.300;6.846;2022-10-13T06:03:42;3.13;;;2.92;;
37107;SDS011;23019;49.300;6.846;2022-10-13T06:05:45;2.75;;;2.53;;
37107;SDS011;23019;49.300;6.846;2022-10-13T06:07:46;2.95;;;2.75;;
37107;SDS011;23019;49.300;6.846;2022-10-13T06:09:50;2.85;;;2.65;;
37107;SDS011;23019;49.300;6.846;2022-10-13T06:11:51;2.97;;;2.78;;
37107;SDS011;23019;49.300;6.846;2022-10-13T06:13:55;2.95;;;2.75;;
37107;SDS011;23019;49.300;6.846;2022-10-13T06:15:56;3.10;;;2.80;;
37107;SDS011;23019;49.300;6.846;2022-10-13T06:17:57;3.17;;;2.97;;
37107;SDS011;23019;49.300;6.846;2022-10-13T06:20:00;2.95;;;2.75;;
37107;SDS011;23019;49.300;6.846;2022-10-13T06:22:01;2.83;;;2.63;;
37107;SDS011;23019;49.300;6.846;2022-10-13T06:24:01;2.92;;;2.70;;
37107;SDS011;23019;49.300;6.846;2022-10-13T06:26:02;3.13;;;2.92;;
37107;SDS011;23019;49.300;6.846;2022-10-13T06:28:04;2.95;;;2.72;;
37107;SDS011;23019;49.300;6.846;2022-10-13T06:30:05;2.75;;;2.55;;
37107;SDS011;23019;49.300;6.846;2022-10-13T06:32:07;2.80;;;2.60;;
37107;SDS011;23019;49.300;6.846;2022-10-13T06:34:07;2.83;;;2.63;;
37107;SDS011;23019;49.300;6.846;2022-10-13T06:36:08;2.72;;;2.53;;
37107;SDS011;23019;49.300;6.846;2022-10-13T06:38:09;2.65;;;2.45;;
37107;SDS011;23019;49.300;6.846;2022-10-13T06:40:11;3.58;;;3.30;;
37107;SDS011;23019;49.300;6.846;2022-10-13T06:42:11;3.13;;;2.92;;
37107;SDS011;23019;49.300;6.846;2022-10-13T06:44:12;4.32;;;2.95;;
37107;SDS011;23019;49.300;6.846;2022-10-13T06:46:13;3.47;;;3.17;;
37107;SDS011;23019;49.300;6.846;2022-10-13T06:48:13;5.30;;;3.40;;
37107;SDS011;23019;49.300;6.846;2022-10-13T06:50:14;3.00;;;2.80;;
37107;SDS011;23019;49.300;6.846;2022-10-13T06:52:15;3.95;;;3.65;;
37107;SDS011;23019;49.300;6.846;2022-10-13T06:54:15;3.05;;;2.85;;
37107;SDS011;23019;49.300;6.846;2022-10-13T06:56:16;3.15;;;2.88;;
37107;SDS011;23019;49.300;6.846;2022-10-13T06:58:17;3.13;;;2.92;;
37107;SDS011;23019;49.300;6.846;2022-10-13T07:00:20;3.05;;;2.85;;
37107;SDS011;23019;49.300;6.846;2022-10-13T07:02:21;3.40;;;3.10;;
37107;SDS011;23019;49.300;6.846;2022-10-13T07:04:21;2.80;;;2.60;;
37107;SDS011;23019;49.300;6.846;2022-10-13T07:06:22;3.20;;;2.90;;
37107;SDS011;23019;49.300;6.846;2022-10-13T07:08:24;2.95;;;2.75;;
37107;SDS011;23019;49.300;6.846;2022-10-13T07:10:25;2.88;;;2.65;;
37107;SDS011;23019;49.300;6.846;2022-10-13T07:12:25;2.22;;;2.13;;
37107;SDS011;23019;49.300;6.846;2022-10-13T07:14:26;2.95;;;2.72;;
37107;SDS011;23019;49.300;6.846;2022-10-13T07:16:27;3.15;;;2.95;;
37107;SDS011;23019;49.300;6.846;2022-10-13T07:18:27;2.40;;;2.30;;
37107;SDS011;23019;49.300;6.846;2022-10-13T07:20:28;2.92;;;2.72;;
37107;SDS011;23019;49.300;6.846;2022-10-13T07:22:29;3.30;;;3.00;;
37107;SDS011;23019;49.300;6.846;2022-10-13T07:24:30;2.50;;;2.30;;
37107;SDS011;23019;49.300;6.846;2022-10-13T07:26:30;4.45;;;2.78;;
37107;SDS011;23019;49.300;6.846;2022-10-13T07:28:32;2.92;;;2.72;;
37107;SDS011;23019;49.300;6.846;2022-10-13T07:30:33;2.40;;;2.20;;
37107;SDS011;23019;49.300;6.846;2022-10-13T07:32:34;3.78;;;2.17;;
37107;SDS011;23019;49.300;6.846;2022-10-13T07:34:36;3.92;;;2.65;;
37107;SDS011;23019;49.300;6.846;2022-10-13T07:36:37;2.40;;;2.20;;
37107;SDS011;23019;49.300;6.846;2022-10-13T07:38:40;2.78;;;2.58;;
37107;SDS011;23019;49.300;6.846;2022-10-13T07:40:41;2.60;;;2.40;;
37107;SDS011;23019;49.300;6.846;2022-10-13T07:42:42;2.38;;;2.17;;
37107;SDS011;23019;49.300;6.846;2022-10-13T07:44:42;2.55;;;2.35;;
37107;SDS011;23019;49.300;6.846;2022-10-13T07:46:46;2.80;;;2.53;;
37107;SDS011;23019;49.300;6.846;2022-10-13T07:48:47;3.13;;;2.33;;
37107;SDS011;23019;49.300;6.846;2022-10-13T07:50:47;2.95;;;2.70;;
37107;SDS011;23019;49.300;6.846;2022-10-13T07:52:48;3.47;;;3.22;;
37107;SDS011;23019;49.300;6.846;2022-10-13T07:54:49;2.40;;;2.20;;
37107;SDS011;23019;49.300;6.846;2022-10-13T07:56:51;2.85;;;2.65;;
37107;SDS011;23019;49.300;6.846;2022-10-13T07:58:51;3.10;;;2.85;;
37107;SDS011;23019;49.300;6.846;2022-10-13T08:00:59;2.75;;;2.55;;
37107;SDS011;23019;49.300;6.846;2022-10-13T08:03:00;2.78;;;2.58;;
37107;SDS011;23019;49.300;6.846;2022-10-13T08:05:01;3.70;;;2.60;;
37107;SDS011;23019;49.300;6.846;2022-10-13T08:07:02;2.85;;;2.65;;
37107;SDS011;23019;49.300;6.846;2022-10-13T08:09:04;2.53;;;2.38;;
37107;SDS011;23019;49.300;6.846;2022-10-13T08:11:07;2.83;;;2.63;;
37107;SDS011;23019;49.300;6.846;2022-10-13T08:13:10;2.65;;;2.45;;
37107;SDS011;23019;49.300;6.846;2022-10-13T08:15:11;3.15;;;2.90;;
37107;SDS011;23019;49.300;6.846;2022-10-13T08:17:12;2.90;;;2.70;;
37107;SDS011;23019;49.300;6.846;2022-10-13T08:19:13;2.30;;;2.10;;
37107;SDS011;23019;49.300;6.846;2022-10-13T08:21:15;5.28;;;2.60;;
37107;SDS011;23019;49.300;6.846;2022-10-13T08:23:17;2.45;;;2.25;;
37107;SDS011;23019;49.300;6.846;2022-10-13T08:25:23;2.80;;;2.60;;
37107;SDS011;23019;49.300;6.846;2022-10-13T08:27:24;2.65;;;2.45;;
37107;SDS011;23019;49.300;6.846;2022-10-13T08:29:25;2.97;;;2.67;;
37107;SDS011;23019;49.300;6.846;2022-10-13T08:31:25;2.92;;;2.72;;
37107;SDS011;23019;49.300;6.846;2022-10-13T08:33:28;2.53;;;2.33;;
37107;SDS011;23019;49.300;6.846;2022-10-13T08:35:29;2.58;;;2.38;;
37107;SDS011;23019;49.300;6.846;2022-10-13T08:37:30;2.55;;;2.38;;
37107;SDS011;23019;49.300;6.846;2022-10-13T08:39:30;4.13;;;2.80;;
37107;SDS011;23019;49.300;6.846;2022-10-13T08:41:32;2.92;;;2.72;;
37107;SDS011;23019;49.300;6.846;2022-10-13T08:43:37;2.83;;;2.63;;
37107;SDS011;23019;49.300;6.846;2022-10-13T08:45:37;2.67;;;2.50;;
37107;SDS011;23019;49.300;6.846;2022-10-13T08:47:40;2.88;;;2.67;;
37107;SDS011;23019;49.300;6.846;2022-10-13T08:49:45;2.78;;;2.58;;
37107;SDS011;23019;49.300;6.846;2022-10-13T08:51:46;2.42;;;2.22;;
37107;SDS011;23019;49.300;6.846;2022-10-13T08:53:47;2.03;;;1.80;;
37107;SDS011;23019;49.300;6.846;2022-10-13T08:55:56;2.70;;;2.50;;
37107;SDS011;23019;49.300;6.846;2022-10-13T08:58:23;2.70;;;2.35;;
37107;SDS011;23019;49.300;6.846;2022-10-13T09:00:27;2.88;;;2.72;;
37107;SDS011;23019;49.300;6.846;2022-10-13T09:02:29;2.60;;;2.30;;
37107;SDS011;23019;49.300;6.846;2022-10-13T09:04:31;1.88;;;1.77;;
37107;SDS011;23019;49.300;6.846;2022-10-13T09:06:37;2.15;;;2.05;;
37107;SDS011;23019;49.300;6.846;2022-10-13T09:08:44;2.70;;;2.50;;
37107;SDS011;23019;49.300;6.846;2022-10-13T09:10:54;2.83;;;2.60;;
37107;SDS011;23019;49.300;6.846;2022-10-13T09:12:55;2.35;;;1.75;;
37107;SDS011;23019;49.300;6.846;2022-10-13T09:15:03;2.15;;;1.95;;
37107;SDS011;23019;49.300;6.846;2022-10-13T09:17:19;4.50;;;2.00;;
37107;SDS011;23019;49.300;6.846;2022-10-13T09:19:31;2.97;;;2.47;;
37107;SDS011;23019;49.300;6.846;2022-10-13T09:21:35;1.80;;;1.70;;
37107;SDS011;23019;49.300;6.846;2022-10-13T09:23:36;2.28;;;2.17;;
37107;SDS011;23019;49.300;6.846;2022-10-13T09:25:38;1.73;;;1.63;;
37107;SDS011;23019;49.300;6.846;2022-10-13T09:29:53;2.00;;;1.90;;
37107;SDS011;23019;49.300;6.846;2022-10-13T09:32:06;1.92;;;1.70;;
37107;SDS011;23019;49.300;6.846;2022-10-13T09:36:20;1.80;;;1.70;;
37107;SDS011;23019;49.300;6.846;2022-10-13T09:38:22;1.80;;;1.70;;
37107;SDS011;23019;49.300;6.846;2022-10-13T09:40:24;1.90;;;1.80;;
37107;SDS011;23019;49.300;6.846;2022-10-13T09:42:25;2.38;;;2.25;;
37107;SDS011;23019;49.300;6.846;2022-10-13T09:44:30;2.28;;;2.13;;
37107;SDS011;23019;49.300;6.846;2022-10-13T09:48:36;2.42;;;2.33;;
37107;SDS011;23019;49.300;6.846;2022-10-13T09:50:46;1.90;;;1.80;;
37107;SDS011;23019;49.300;6.846;2022-10-13T09:52:49;2.92;;;2.72;;
37107;SDS011;23019;49.300;6.846;2022-10-13T09:54:51;3.13;;;2.92;;
37107;SDS011;23019;49.300;6.846;2022-10-13T09:56:58;2.72;;;2.53;;
37107;SDS011;23019;49.300;6.846;2022-10-13T09:59:07;2.72;;;2.53;;
37107;SDS011;23019;49.300;6.846;2022-10-13T10:01:31;2.95;;;2.67;;
37107;SDS011;23019;49.300;6.846;2022-10-13T10:03:36;3.00;;;2.80;;
37107;SDS011;23019;49.300;6.846;2022-10-13T10:05:43;3.03;;;2.83;;
37107;SDS011;23019;49.300;6.846;2022-10-13T10:08:01;2.45;;;2.25;;
37107;SDS011;23019;49.300;6.846;2022-10-13T10:10:30;3.05;;;2.60;;
37107;SDS011;23019;49.300;6.846;2022-10-13T10:12:35;2.70;;;2.50;;
37107;SDS011;23019;49.300;6.846;2022-10-13T10:14:39;2.53;;;2.33;;
37107;SDS011;23019;49.300;6.846;2022-10-13T10:16:42;4.18;;;2.80;;
37107;SDS011;23019;49.300;6.846;2022-10-13T10:18:47;2.72;;;2.53;;
37107;SDS011;23019;49.300;6.846;2022-10-13T10:21:21;2.65;;;2.45;;
37107;SDS011;23019;49.300;6.846;2022-10-13T10:24:01;2.35;;;2.25;;
37107;SDS011;23019;49.300;6.846;2022-10-13T10:26:24;2.28;;;2.08;;
37107;SDS011;23019;49.300;6.846;2022-10-13T10:28:47;4.30;;;2.50;;
37107;SDS011;23019;49.300;6.846;2022-10-13T10:33:19;3.10;;;2.80;;
37107;SDS011;23019;49.300;6.846;2022-10-13T10:35:40;2.83;;;2.63;;
37107;SDS011;23019;49.300;6.846;2022-10-13T10:40:14;3.25;;;2.58;;
37107;SDS011;23019;49.300;6.846;2022-10-13T10:44:48;2.03;;;1.85;;
37107;SDS011;23019;49.300;6.846;2022-10-13T10:46:53;4.43;;;2.22;;
37107;SDS011;23019;49.300;6.846;2022-10-13T10:49:00;1.80;;;1.70;;
37107;SDS011;23019;49.300;6.846;2022-10-13T10:51:10;2.58;;;2.20;;
37107;SDS011;23019;49.300;6.846;2022-10-13T10:58:01;1.95;;;1.85;;
37107;SDS011;23019;49.300;6.846;2022-10-13T11:00:19;2.00;;;1.90;;
37107;SDS011;23019;49.300;6.846;2022-10-13T11:04:43;2.15;;;2.03;;
37107;SDS011;23019;49.300;6.846;2022-10-13T11:06:49;2.72;;;2.40;;
37107;SDS011;23019;49.300;6.846;2022-10-13T11:08:49;2.17;;;1.98;;
37107;SDS011;23019;49.300;6.846;2022-10-13T11:13:30;2.95;;;2.75;;
37107;SDS011;23019;49.300;6.846;2022-10-13T11:15:56;2.45;;;2.25;;
37107;SDS011;23019;49.300;6.846;2022-10-13T11:17:56;2.60;;;2.35;;
37107;SDS011;23019;49.300;6.846;2022-10-13T11:19:57;2.90;;;2.70;;
37107;SDS011;23019;49.300;6.846;2022-10-13T11:23:59;2.70;;;2.50;;
37107;SDS011;23019;49.300;6.846;2022-10-13T11:30:42;2.45;;;2.25;;
37107;SDS011;23019;49.300;6.846;2022-10-13T11:33:28;2.20;;;2.00;;
37107;SDS011;23019;49.300;6.846;2022-10-13T11:35:30;1.77;;;1.67;;
37107;SDS011;23019;49.300;6.846;2022-10-13T11:37:38;2.67;;;2.47;;
37107;SDS011;23019;49.300;6.846;2022-10-13T11:40:00;2.20;;;2.10;;
37107;SDS011;23019;49.300;6.846;2022-10-13T11:42:20;4.13;;;2.63;;
37107;SDS011;23019;49.300;6.846;2022-10-13T11:44:42;2.22;;;2.13;;
37107;SDS011;23019;49.300;6.846;2022-10-13T11:49:18;2.53;;;2.33;;
37107;SDS011;23019;49.300;6.846;2022-10-13T11:54:31;2.63;;;2.50;;
37107;SDS011;23019;49.300;6.846;2022-10-13T11:58:50;2.30;;;2.10;;
37107;SDS011;23019;49.300;6.846;2022-10-13T12:01:01;2.08;;;1.98;;
37107;SDS011;23019;49.300;6.846;2022-10-13T12:03:17;3.40;;;2.47;;
37107;SDS011;23019;49.300;6.846;2022-10-13T12:05:28;2.80;;;2.60;;
37107;SDS011;23019;49.300;6.846;2022-10-13T12:07:31;2.30;;;2.03;;
37107;SDS011;23019;49.300;6.846;2022-10-13T12:09:54;2.50;;;2.30;;
37107;SDS011;23019;49.300;6.846;2022-10-13T12:12:08;2.90;;;2.70;;
37107;SDS011;23019;49.300;6.846;2022-10-13T12:14:20;2.72;;;2.53;;
37107;SDS011;23019;49.300;6.846;2022-10-13T12:16:26;2.60;;;2.40;;
37107;SDS011;23019;49.300;6.846;2022-10-13T12:18:29;2.42;;;2.20;;
37107;SDS011;23019;49.300;6.846;2022-10-13T12:20:39;3.25;;;2.95;;
37107;SDS011;23019;49.300;6.846;2022-10-13T12:22:45;2.55;;;2.45;;
37107;SDS011;23019;49.300;6.846;2022-10-13T12:27:39;2.70;;;2.50;;
37107;SDS011;23019;49.300;6.846;2022-10-13T12:29:33;2.67;;;2.47;;
37107;SDS011;23019;49.300;6.846;2022-10-13T12:33:50;3.28;;;2.53;;
37107;SDS011;23019;49.300;6.846;2022-10-13T12:36:09;3.00;;;2.72;;
37107;SDS011;23019;49.300;6.846;2022-10-13T12:38:17;3.63;;;3.38;;
37107;SDS011;23019;49.300;6.846;2022-10-13T12:40:19;4.55;;;3.50;;
37107;SDS011;23019;49.300;6.846;2022-10-13T12:42:22;3.70;;;3.05;;
37107;SDS011;23019;49.300;6.846;2022-10-13T12:44:29;3.45;;;2.67;;
37107;SDS011;23019;49.300;6.846;2022-10-13T12:48:42;3.05;;;2.83;;
37107;SDS011;23019;49.300;6.846;2022-10-13T12:50:44;3.60;;;2.95;;
37107;SDS011;23019;49.300;6.846;2022-10-13T12:52:44;2.95;;;2.75;;
37107;SDS011;23019;49.300;6.846;2022-10-13T12:54:46;3.00;;;2.80;;
37107;SDS011;23019;49.300;6.846;2022-10-13T12:56:58;3.30;;;3.10;;
37107;SDS011;23019;49.300;6.846;2022-10-13T12:59:12;3.70;;;3.42;;
37107;SDS011;23019;49.300;6.846;2022-10-13T13:01:31;2.92;;;2.72;;
37107;SDS011;23019;49.300;6.846;2022-10-13T13:03:43;3.65;;;3.35;;
37107;SDS011;23019;49.300;6.846;2022-10-13T13:05:44;3.15;;;2.92;;
37107;SDS011;23019;49.300;6.846;2022-10-13T13:07:53;3.38;;;3.08;;
37107;SDS011;23019;49.300;6.846;2022-10-13T13:10:12;2.95;;;2.75;;
37107;SDS011;23019;49.300;6.846;2022-10-13T13:12:18;3.42;;;2.70;;
37107;SDS011;23019;49.300;6.846;2022-10-13T13:16:36;5.35;;;3.05;;
37107;SDS011;23019;49.300;6.846;2022-10-13T13:18:38;3.65;;;3.40;;
37107;SDS011;23019;49.300;6.846;2022-10-13T13:20:41;3.03;;;2.83;;
37107;SDS011;23019;49.300;6.846;2022-10-13T13:22:41;3.55;;;3.25;;
37107;SDS011;23019;49.300;6.846;2022-10-13T13:24:42;3.30;;;3.10;;
37107;SDS011;23019;49.300;6.846;2022-10-13T13:26:44;4.60;;;3.83;;
37107;SDS011;23019;49.300;6.846;2022-10-13T13:28:46;3.60;;;3.40;;
37107;SDS011;23019;49.300;6.846;2022-10-13T13:30:48;3.53;;;3.22;;
37107;SDS011;23019;49.300;6.846;2022-10-13T13:32:49;3.55;;;3.25;;
37107;SDS011;23019;49.300;6.846;2022-10-13T13:34:50;4.07;;;3.17;;
37107;SDS011;23019;49.300;6.846;2022-10-13T13:36:50;3.75;;;3.55;;
37107;SDS011;23019;49.300;6.846;2022-10-13T13:38:52;3.85;;;3.47;;
37107;SDS011;23019;49.300;6.846;2022-10-13T13:40:53;3.88;;;3.58;;